Time;durP1;ratioP1;P1;durP2;ratioP2;P2;SDS_P1;SDS_P2;PMS_P1;PMS_P2;Temp;Humidity;BMP_temperature;BMP_pressure;BME280_temperature;BME280_humidity;BME280_pressure;Samples;Min_cycle;Max_cycle;Signal;HPM_P1;HPM_P2
2021/03/29 00:02:06;;;;;;;19.83;5.40;;;11.20;60.20;;;;;;5111938;28;20115;-37
2021/03/29 00:04:33;;;;;;;12.13;4.05;;;11.10;60.00;;;;;;5113554;28;20090;-37
2021/03/29 00:07:01;;;;;;;17.98;5.32;;;11.20;59.90;;;;;;5115071;28;20068;-37
2021/03/29 00:09:32;;;;;;;12.10;3.92;;;11.20;59.70;;;;;;5116853;28;20027;-37
2021/03/29 00:12:04;;;;;;;11.93;4.00;;;11.10;59.60;;;;;;5116800;28;20051;-37
2021/03/29 00:14:31;;;;;;;12.07;4.53;;;11.10;59.30;;;;;;5116723;28;20026;-37
2021/03/29 00:16:57;;;;;;;15.35;4.70;;;11.10;58.90;;;;;;5116807;28;20068;-36
2021/03/29 00:19:24;;;;;;;14.77;4.22;;;11.10;58.90;;;;;;5117172;28;20028;-37
2021/03/29 00:21:50;;;;;;;17.55;3.63;;;11.20;58.20;;;;;;5116952;28;20054;-37
2021/03/29 00:24:16;;;;;;;10.80;3.45;;;11.30;57.60;;;;;;5116772;28;20023;-37
2021/03/29 00:26:43;;;;;;;15.57;4.28;;;11.20;57.30;;;;;;5116912;28;20367;-37
2021/03/29 00:29:08;;;;;;;18.38;5.47;;;11.20;57.10;;;;;;5116759;28;20038;-37
2021/03/29 00:31:34;;;;;;;9.65;3.13;;;11.10;57.40;;;;;;5116859;28;20027;-37
2021/03/29 00:34:01;;;;;;;15.88;4.28;;;11.20;56.70;;;;;;5116628;28;20028;-37
2021/03/29 00:36:29;;;;;;;9.52;2.92;;;11.10;56.80;;;;;;5116710;28;20039;-36
2021/03/29 00:38:56;;;;;;;7.03;3.65;;;11.10;56.40;;;;;;5116309;28;20082;-36
2021/03/29 00:41:24;;;;;;;11.00;4.85;;;11.20;56.10;;;;;;5116341;28;20012;-37
2021/03/29 00:43:50;;;;;;;15.73;4.18;;;11.20;55.80;;;;;;5116366;28;20034;-36
2021/03/29 00:46:18;;;;;;;16.05;5.38;;;11.10;55.80;;;;;;5114983;28;20030;-36
2021/03/29 00:48:45;;;;;;;12.68;4.80;;;11.20;55.50;;;;;;5116069;28;20079;-36
2021/03/29 00:51:22;;;;;;;9.95;2.90;;;11.10;55.70;;;;;;5116328;28;20024;-36
2021/03/29 00:53:51;;;;;;;19.65;4.00;;;11.10;55.70;;;;;;5116212;27;20027;-36
2021/03/29 00:56:17;;;;;;;10.55;3.50;;;11.10;55.60;;;;;;5114934;28;20047;-36
2021/03/29 00:58:44;;;;;;;10.48;2.70;;;11.10;55.30;;;;;;5097597;28;20032;-36
2021/03/29 01:01:13;;;;;;;13.15;3.60;;;11.10;55.50;;;;;;5116206;28;20431;-36
2021/03/29 01:03:42;;;;;;;7.82;3.30;;;11.10;55.50;;;;;;5116098;28;20451;-37
2021/03/29 01:06:13;;;;;;;17.40;4.50;;;11.00;55.50;;;;;;5115638;28;20085;-37
2021/03/29 01:08:48;;;;;;;8.75;3.42;;;10.90;55.90;;;;;;5115608;28;20023;-37
2021/03/29 01:11:17;;;;;;;12.48;3.25;;;11.00;55.40;;;;;;5114308;28;20047;-37
2021/03/29 01:13:46;;;;;;;15.80;3.80;;;10.90;56.00;;;;;;5116340;28;20471;-37
2021/03/29 01:16:17;;;;;;;7.63;3.13;;;11.00;55.50;;;;;;5115743;28;20016;-36
2021/03/29 01:18:46;;;;;;;11.95;4.00;;;10.90;55.60;;;;;;5114868;28;20038;-38
2021/03/29 01:21:28;;;;;;;13.27;3.65;;;10.90;55.70;;;;;;5115185;28;20110;-36
2021/03/29 01:24:04;;;;;;;13.20;3.20;;;10.90;55.60;;;;;;5115256;28;20020;-36
2021/03/29 01:26:35;;;;;;;18.67;3.88;;;10.90;55.60;;;;;;5115594;28;20024;-35
2021/03/29 01:29:01;;;;;;;10.25;3.60;;;10.80;55.80;;;;;;5115353;28;20108;-36
2021/03/29 01:31:27;;;;;;;10.48;4.00;;;10.80;56.00;;;;;;5115627;28;20028;-36
2021/03/29 01:33:54;;;;;;;13.02;2.97;;;10.80;56.00;;;;;;5096833;28;20023;-37
2021/03/29 01:36:22;;;;;;;9.73;3.88;;;10.80;55.70;;;;;;5114946;28;20114;-36
2021/03/29 01:38:48;;;;;;;14.52;4.57;;;10.90;55.30;;;;;;5113985;28;20433;-36
2021/03/29 01:41:15;;;;;;;11.10;3.30;;;10.90;55.60;;;;;;5115777;28;20070;-36
2021/03/29 01:43:41;;;;;;;17.98;4.20;;;10.90;55.60;;;;;;5115169;28;20020;-36
2021/03/29 01:46:07;;;;;;;16.95;3.38;;;10.80;55.90;;;;;;5114264;28;20020;-36
2021/03/29 01:48:34;;;;;;;9.45;2.88;;;10.80;55.60;;;;;;5116909;28;20074;-36
2021/03/29 01:50:59;;;;;;;14.45;4.85;;;10.80;56.00;;;;;;5114496;28;20095;-36
2021/03/29 01:53:27;;;;;;;16.75;4.00;;;10.80;56.20;;;;;;5119220;28;20035;-36
2021/03/29 01:55:54;;;;;;;19.20;3.38;;;10.80;56.20;;;;;;5115425;28;20495;-36
2021/03/29 01:58:21;;;;;;;7.85;3.25;;;10.80;56.30;;;;;;5115451;28;20032;-36
2021/03/29 02:00:47;;;;;;;12.48;3.03;;;10.80;55.90;;;;;;5114806;28;20442;-36
2021/03/29 02:03:13;;;;;;;8.05;4.07;;;10.80;55.70;;;;;;5114902;28;20047;-36
2021/03/29 02:05:40;;;;;;;8.10;3.25;;;10.80;55.50;;;;;;5113522;28;20024;-36
2021/03/29 02:08:07;;;;;;;14.13;4.43;;;10.90;55.30;;;;;;5113440;28;20487;-40
2021/03/29 02:10:35;;;;;;;18.98;3.60;;;10.90;55.20;;;;;;5114711;28;20030;-36
2021/03/29 02:13:09;;;;;;;13.60;3.90;;;11.00;55.10;;;;;;5114692;28;20019;-37
2021/03/29 02:15:35;;;;;;;8.30;2.97;;;11.00;54.40;;;;;;5114887;28;20026;-36
2021/03/29 02:18:12;;;;;;;15.68;3.80;;;11.00;54.70;;;;;;5114715;28;20387;-37
2021/03/29 02:20:39;;;;;;;12.90;3.40;;;11.00;54.70;;;;;;5114675;28;20024;-37
2021/03/29 02:23:07;;;;;;;12.80;3.90;;;10.90;55.00;;;;;;5114600;28;20437;-37
2021/03/29 02:25:34;;;;;;;14.77;3.78;;;11.00;54.60;;;;;;5113203;28;20026;-36
2021/03/29 02:28:03;;;;;;;13.32;3.05;;;11.00;54.70;;;;;;5114393;28;20379;-37
2021/03/29 02:30:36;;;;;;;13.15;3.20;;;10.90;55.20;;;;;;5112306;28;20077;-36
2021/03/29 02:33:04;;;;;;;9.07;4.50;;;11.10;54.20;;;;;;5113039;28;20111;-36
2021/03/29 02:35:30;;;;;;;10.32;3.15;;;11.00;54.50;;;;;;5114570;28;20041;-36
2021/03/29 02:37:57;;;;;;;8.70;3.75;;;11.00;54.60;;;;;;5114259;28;20027;-37
2021/03/29 02:40:25;;;;;;;12.60;3.58;;;11.10;54.30;;;;;;5114152;28;20130;-37
2021/03/29 02:42:54;;;;;;;13.73;3.17;;;11.10;54.10;;;;;;5112728;28;20028;-36
2021/03/29 02:45:23;;;;;;;17.55;4.68;;;11.20;54.10;;;;;;5112910;28;20046;-37
2021/03/29 02:47:49;;;;;;;19.60;5.15;;;11.10;54.40;;;;;;5113920;28;20035;-37
2021/03/29 02:50:19;;;;;;;10.68;4.03;;;11.10;54.50;;;;;;5114105;28;20436;-37
2021/03/29 02:52:50;;;;;;;17.50;3.67;;;10.90;54.70;;;;;;5114056;28;20102;-37
2021/03/29 02:55:18;;;;;;;18.08;3.60;;;10.90;54.90;;;;;;5114332;28;20374;-37
2021/03/29 02:57:48;;;;;;;12.50;3.75;;;11.00;54.70;;;;;;5112615;28;20020;-37
2021/03/29 03:00:18;;;;;;;10.98;3.20;;;11.00;54.50;;;;;;5113888;28;20028;-36
2021/03/29 03:02:44;;;;;;;9.80;3.60;;;11.00;54.60;;;;;;5113879;28;20020;-38
2021/03/29 03:05:11;;;;;;;12.00;4.93;;;10.90;54.70;;;;;;5112607;28;20364;-38
2021/03/29 03:07:39;;;;;;;12.68;4.13;;;10.90;55.00;;;;;;5113748;28;20016;-36
2021/03/29 03:10:14;;;;;;;13.32;3.60;;;11.00;54.50;;;;;;5113745;28;20028;-36
2021/03/29 03:12:45;;;;;;;14.20;3.03;;;10.90;54.70;;;;;;5112723;28;20045;-36
2021/03/29 03:15:17;;;;;;;14.75;3.40;;;10.90;55.00;;;;;;5113847;28;20062;-38
2021/03/29 03:17:45;;;;;;;10.65;3.40;;;11.00;54.40;;;;;;5114028;28;20063;-37
2021/03/29 03:20:13;;;;;;;10.57;3.22;;;10.90;54.80;;;;;;5113798;28;20032;-36
2021/03/29 03:22:52;;;;;;;7.20;2.95;;;10.80;55.10;;;;;;5113686;28;20032;-36
2021/03/29 03:25:27;;;;;;;12.35;3.08;;;10.90;54.80;;;;;;5113673;28;20032;-36
2021/03/29 03:27:54;;;;;;;8.95;3.00;;;10.90;55.00;;;;;;5113835;28;20028;-36
2021/03/29 03:30:30;;;;;;;10.93;4.25;;;10.80;55.10;;;;;;5114078;28;20513;-37
2021/03/29 03:32:57;;;;;;;9.77;3.65;;;10.80;55.50;;;;;;5114513;28;20032;-36
2021/03/29 03:35:24;;;;;;;14.55;3.83;;;10.80;55.20;;;;;;5113477;28;20111;-37
2021/03/29 03:38:20;;;;;;;10.10;4.45;;;10.80;55.20;;;;;;5113769;28;20028;-36
2021/03/29 03:40:52;;;;;;;13.90;3.22;;;10.80;55.50;;;;;;5111206;28;20555;-36
2021/03/29 03:43:20;;;;;;;12.00;3.42;;;10.90;55.10;;;;;;5117572;28;20088;-36
2021/03/29 03:45:49;;;;;;;13.35;3.17;;;10.80;55.30;;;;;;5117429;28;20043;-36
2021/03/29 03:48:17;;;;;;;9.73;3.50;;;10.80;55.50;;;;;;5117524;27;20096;-36
2021/03/29 03:50:49;;;;;;;11.40;3.30;;;10.80;55.80;;;;;;5117432;28;20046;-36
2021/03/29 03:53:16;;;;;;;8.57;3.25;;;10.80;55.90;;;;;;5117641;28;20027;-36
2021/03/29 03:55:43;;;;;;;13.60;4.07;;;10.80;55.70;;;;;;5116005;28;20055;-37
2021/03/29 03:58:11;;;;;;;13.50;3.13;;;10.80;55.60;;;;;;5117247;28;20064;-36
2021/03/29 04:00:37;;;;;;;16.25;3.88;;;10.80;55.90;;;;;;5118217;28;20031;-37
2021/03/29 04:03:03;;;;;;;12.68;3.08;;;10.80;55.90;;;;;;5116004;28;20054;-36
2021/03/29 04:05:30;;;;;;;10.38;3.97;;;10.70;56.20;;;;;;5117484;28;20024;-37
2021/03/29 04:07:58;;;;;;;9.27;2.95;;;10.70;56.30;;;;;;5117247;28;20107;-37
2021/03/29 04:10:44;;;;;;;12.00;3.17;;;10.60;56.40;;;;;;5115673;28;20024;-37
2021/03/29 04:13:22;;;;;;;13.82;3.05;;;10.60;56.60;;;;;;5117028;28;20098;-37
2021/03/29 04:15:48;;;;;;;13.80;3.00;;;10.60;56.50;;;;;;5117365;28;20442;-36
2021/03/29 04:18:13;;;;;;;15.52;4.75;;;10.60;56.70;;;;;;5116999;28;20055;-37
2021/03/29 04:20:39;;;;;;;15.75;3.60;;;10.50;57.10;;;;;;5115428;28;20027;-37
2021/03/29 04:23:05;;;;;;;13.57;4.25;;;10.60;56.90;;;;;;5116813;28;20077;-37
2021/03/29 04:25:30;;;;;;;8.68;3.50;;;10.60;56.80;;;;;;5116966;28;20034;-37
2021/03/29 04:27:56;;;;;;;15.48;4.78;;;10.50;57.30;;;;;;5115548;28;20463;-37
2021/03/29 04:30:22;;;;;;;13.27;3.15;;;10.60;57.00;;;;;;5116722;28;20054;-37
2021/03/29 04:32:49;;;;;;;8.68;3.17;;;10.70;56.80;;;;;;5116737;28;20474;-37
2021/03/29 04:35:16;;;;;;;11.60;3.13;;;10.70;56.80;;;;;;5115291;28;20114;-37
2021/03/29 04:37:42;;;;;;;5.05;2.30;;;10.60;57.10;;;;;;5116782;28;20035;-37
2021/03/29 04:40:08;;;;;;;7.05;2.80;;;10.50;57.40;;;;;;5116670;28;20032;-37
2021/03/29 04:42:34;;;;;;;8.07;3.38;;;10.50;57.40;;;;;;5116392;28;20478;-37
2021/03/29 04:45:00;;;;;;;8.35;3.33;;;10.60;57.10;;;;;;5116700;27;20032;-37
2021/03/29 04:47:26;;;;;;;10.02;2.85;;;10.50;57.50;;;;;;5116283;28;20495;-37
2021/03/29 04:49:51;;;;;;;9.80;2.65;;;10.50;57.70;;;;;;5116632;28;20453;-37
2021/03/29 04:52:18;;;;;;;8.98;2.58;;;10.50;57.40;;;;;;5115674;27;20063;-36
2021/03/29 04:54:44;;;;;;;11.75;3.83;;;10.60;57.30;;;;;;5116857;28;20020;-37
2021/03/29 04:57:09;;;;;;;8.80;2.70;;;10.50;57.60;;;;;;5116758;27;20077;-37
2021/03/29 04:59:35;;;;;;;9.57;3.50;;;10.50;57.50;;;;;;5116377;28;20463;-37
2021/03/29 05:02:00;;;;;;;16.52;3.15;;;10.50;57.60;;;;;;5116689;28;20366;-36
2021/03/29 05:04:26;;;;;;;9.65;3.10;;;10.30;58.00;;;;;;5116027;28;20118;-37
2021/03/29 05:06:52;;;;;;;11.68;3.88;;;10.50;57.70;;;;;;5116305;28;20443;-37
2021/03/29 05:09:17;;;;;;;12.85;4.13;;;10.30;58.10;;;;;;5116034;28;20032;-37
2021/03/29 05:11:52;;;;;;;7.80;2.85;;;10.30;58.30;;;;;;5115919;28;20024;-37
2021/03/29 05:14:19;;;;;;;7.15;2.45;;;10.30;58.60;;;;;;5116199;28;20051;-37
2021/03/29 05:16:46;;;;;;;13.27;3.10;;;10.30;58.70;;;;;;5115707;28;20080;-37
2021/03/29 05:19:12;;;;;;;8.30;3.20;;;10.30;58.40;;;;;;5114420;28;20497;-37
2021/03/29 05:21:38;;;;;;;10.23;3.30;;;10.20;58.80;;;;;;5115637;28;20024;-37
2021/03/29 05:24:05;;;;;;;8.82;2.95;;;10.30;58.90;;;;;;5115965;28;20023;-37
2021/03/29 05:26:31;;;;;;;8.88;3.33;;;10.30;59.00;;;;;;5115542;28;20012;-37
2021/03/29 05:28:57;;;;;;;9.73;3.03;;;10.30;58.80;;;;;;5115559;28;20035;-36
2021/03/29 05:31:23;;;;;;;15.90;2.92;;;10.20;59.30;;;;;;5115805;28;20375;-37
2021/03/29 05:33:49;;;;;;;8.77;2.70;;;10.20;59.50;;;;;;5115909;28;20028;-36
2021/03/29 05:36:15;;;;;;;5.78;2.50;;;10.30;59.40;;;;;;5115629;28;20016;-36
2021/03/29 05:38:42;;;;;;;11.45;3.00;;;10.40;58.90;;;;;;5115772;28;20031;-38
2021/03/29 05:41:13;;;;;;;11.88;2.70;;;10.50;58.70;;;;;;5114235;28;20088;-37
2021/03/29 05:43:40;;;;;;;9.85;2.50;;;10.40;58.90;;;;;;5114645;28;20023;-38
2021/03/29 05:46:05;;;;;;;19.17;3.05;;;10.40;59.00;;;;;;5115285;28;20069;-37
2021/03/29 05:48:32;;;;;;;13.05;3.55;;;10.40;59.20;;;;;;5115213;28;20122;-37
2021/03/29 05:51:01;;;;;;;7.47;3.42;;;10.50;58.90;;;;;;5115485;28;20092;-37
2021/03/29 05:53:27;;;;;;;14.93;3.70;;;10.50;59.10;;;;;;5113656;28;20080;-37
2021/03/29 05:55:53;;;;;;;7.05;3.38;;;10.50;59.00;;;;;;5115395;28;20028;-37
2021/03/29 06:00:53;;;;;;;12.98;3.38;;;10.40;59.50;;;;;;5114774;28;20379;-37
2021/03/29 06:03:25;;;;;;;6.93;2.38;;;10.50;59.30;;;;;;5114703;28;20027;-37
2021/03/29 06:05:54;;;;;;;9.13;2.47;;;10.60;59.00;;;;;;5115279;28;20375;-37
2021/03/29 06:08:20;;;;;;;4.50;2.45;;;10.60;59.00;;;;;;5115127;28;20463;-38
2021/03/29 06:10:46;;;;;;;6.35;2.50;;;10.50;59.20;;;;;;5115252;28;20378;-38
2021/03/29 06:13:18;;;;;;;9.23;3.13;;;10.50;59.20;;;;;;5114774;28;20062;-36
2021/03/29 06:15:45;;;;;;;21.48;3.10;;;10.50;59.40;;;;;;5114931;28;20024;-37
2021/03/29 06:18:12;;;;;;;9.65;2.55;;;10.60;59.30;;;;;;5114782;28;20402;-37
2021/03/29 06:21:02;;;;;;;19.02;4.07;;;10.60;59.00;;;;;;5114371;28;20024;-36
2021/03/29 06:23:29;;;;;;;8.73;2.78;;;10.70;58.80;;;;;;5114370;28;20028;-37
2021/03/29 06:26:21;;;;;;;12.75;3.17;;;10.80;58.70;;;;;;5112980;28;20031;-38
2021/03/29 06:28:47;;;;;;;7.10;2.88;;;10.80;58.40;;;;;;5114275;28;20038;-37
2021/03/29 06:31:23;;;;;;;11.50;3.80;;;10.80;58.90;;;;;;5114428;28;20024;-37
2021/03/29 06:33:50;;;;;;;10.20;3.47;;;10.80;58.90;;;;;;5114584;28;20085;-37
2021/03/29 06:36:37;;;;;;;13.02;3.00;;;10.80;58.50;;;;;;5114272;28;20019;-37
2021/03/29 06:39:15;;;;;;;8.65;2.88;;;10.80;58.90;;;;;;5114198;28;20019;-38
2021/03/29 06:41:49;;;;;;;15.45;3.45;;;11.00;58.20;;;;;;5114490;28;20027;-38
2021/03/29 06:44:31;;;;;;;15.65;2.80;;;11.00;58.20;;;;;;5113482;28;20409;-38
2021/03/29 06:47:07;;;;;;;10.27;3.20;;;11.00;58.20;;;;;;5113893;28;20020;-37
2021/03/29 06:49:44;;;;;;;7.03;2.95;;;11.10;57.90;;;;;;5114477;28;20027;-37
2021/03/29 06:52:38;;;;;;;11.63;3.75;;;11.20;57.80;;;;;;5114229;28;20031;-38
2021/03/29 06:55:24;;;;;;;3.97;2.22;;;11.30;57.50;;;;;;5104347;28;20488;-38
2021/03/29 06:58:08;;;;;;;7.97;2.75;;;11.30;57.50;;;;;;5114122;28;20409;-40
2021/03/29 07:00:36;;;;;;;10.55;3.25;;;11.40;57.40;;;;;;5113238;28;20154;-38
2021/03/29 07:03:07;;;;;;;7.28;3.55;;;11.60;56.90;;;;;;5113528;28;20531;-38
2021/03/29 07:05:34;;;;;;;10.05;2.92;;;11.60;56.90;;;;;;5114504;28;20020;-38
2021/03/29 07:08:01;;;;;;;9.57;3.03;;;11.70;56.60;;;;;;5095891;28;20024;-39
2021/03/29 07:10:27;;;;;;;7.40;2.22;;;11.80;56.30;;;;;;5114132;28;20042;-37
2021/03/29 07:12:54;;;;;;;7.97;2.83;;;11.80;56.40;;;;;;5113954;28;20023;-38
2021/03/29 07:15:21;;;;;;;6.93;2.80;;;12.00;55.90;;;;;;5111819;28;20456;-39
2021/03/29 07:17:48;;;;;;;11.40;3.28;;;12.10;55.80;;;;;;5113490;28;20030;-37
2021/03/29 07:20:21;;;;;;;11.75;3.03;;;12.20;55.80;;;;;;5113250;28;20020;-37
2021/03/29 07:22:48;;;;;;;11.95;3.17;;;12.40;55.30;;;;;;5113950;28;20456;-38
2021/03/29 07:25:15;;;;;;;5.10;2.30;;;12.50;54.70;;;;;;5113478;28;20107;-38
2021/03/29 07:27:54;;;;;;;7.78;3.38;;;12.60;54.50;;;;;;5113667;28;20027;-38
2021/03/29 07:30:49;;;;;;;11.95;2.63;;;12.60;54.50;;;;;;5112087;28;20077;-37
2021/03/29 07:33:16;;;;;;;12.00;2.95;;;12.80;53.90;;;;;;5113304;28;20081;-38
2021/03/29 07:35:50;;;;;;;5.40;2.60;;;12.80;54.20;;;;;;5113252;28;20035;-38
2021/03/29 07:38:19;;;;;;;10.50;3.05;;;12.80;54.10;;;;;;5113888;28;20059;-38
2021/03/29 07:40:54;;;;;;;15.75;2.80;;;12.80;54.00;;;;;;5113716;28;20110;-38
2021/03/29 07:43:22;;;;;;;8.18;3.00;;;12.80;53.80;;;;;;5112607;28;20015;-37
2021/03/29 07:45:50;;;;;;;9.80;3.35;;;12.80;54.20;;;;;;5111450;28;20040;-38
2021/03/29 07:48:41;;;;;;;13.98;3.47;;;12.80;54.10;;;;;;5112558;28;20043;-38
2021/03/29 07:51:17;;;;;;;7.47;2.60;;;12.90;53.70;;;;;;5113062;28;20084;-39
2021/03/29 07:53:52;;;;;;;8.27;3.17;;;12.80;54.40;;;;;;5113284;28;20081;-37
2021/03/29 07:56:30;;;;;;;6.85;2.83;;;13.00;53.90;;;;;;5111452;28;20030;-37
2021/03/29 07:58:56;;;;;;;11.73;2.83;;;13.20;53.50;;;;;;5112631;28;20103;-37
2021/03/29 08:01:22;;;;;;;12.25;3.10;;;13.30;52.40;;;;;;5114109;28;20020;-37
2021/03/29 08:03:51;;;;;;;10.35;3.03;;;13.30;52.30;;;;;;5111329;28;20497;-37
2021/03/29 08:06:40;;;;;;;14.10;2.90;;;13.50;52.30;;;;;;5112897;28;20472;-37
2021/03/29 08:09:07;;;;;;;9.38;3.40;;;13.70;51.60;;;;;;5113053;28;20016;-38
2021/03/29 08:11:54;;;;;;;8.75;2.45;;;13.50;51.70;;;;;;5113097;28;20027;-39
2021/03/29 08:14:52;;;;;;;10.95;3.97;;;13.70;51.00;;;;;;5113099;28;20059;-38
2021/03/29 08:17:36;;;;;;;6.70;2.45;;;13.70;50.90;;;;;;5111126;28;20035;-38
2021/03/29 08:20:33;;;;;;;8.00;2.70;;;13.80;50.50;;;;;;5112916;28;20170;-38
2021/03/29 08:23:29;;;;;;;5.15;3.08;;;13.80;50.30;;;;;;5106722;28;20049;-37
2021/03/29 08:26:08;;;;;;;6.68;3.05;;;13.80;50.30;;;;;;5112707;28;20023;-37
2021/03/29 08:29:09;;;;;;;6.97;2.50;;;14.00;49.50;;;;;;5113950;28;20015;-37
2021/03/29 08:31:59;;;;;;;14.40;3.13;;;14.50;48.20;;;;;;5108612;28;20035;-37
2021/03/29 08:34:26;;;;;;;;;;;15.00;46.50;;;;;;5116812;28;20034;-39
2021/03/29 08:36:54;;;;;;;9.15;2.58;;;15.20;46.00;;;;;;5116177;28;20014;-37
2021/03/29 08:39:20;;;;;;;9.57;3.15;;;15.30;45.10;;;;;;5116265;28;20091;-37
2021/03/29 08:41:50;;;;;;;12.23;3.15;;;15.10;45.40;;;;;;5116320;28;20074;-37
2021/03/29 08:44:16;;;;;;;9.80;3.40;;;15.10;45.70;;;;;;5117062;28;20107;-37
2021/03/29 08:46:44;;;;;;;11.43;2.70;;;15.40;45.00;;;;;;5115971;28;20063;-37
2021/03/29 08:49:10;;;;;;;7.60;2.45;;;15.30;44.80;;;;;;5115980;28;20039;-37
2021/03/29 08:51:36;;;;;;;14.00;3.42;;;15.30;45.40;;;;;;5116174;28;20157;-37
2021/03/29 08:54:11;;;;;;;8.60;3.28;;;14.60;46.80;;;;;;5115957;28;20027;-38
2021/03/29 08:56:41;;;;;;;8.27;2.80;;;15.20;45.70;;;;;;5116069;28;20043;-38
2021/03/29 08:59:08;;;;;;;7.03;2.70;;;15.30;45.00;;;;;;5114297;28;20024;-38
2021/03/29 09:01:35;;;;;;;8.50;2.70;;;16.20;43.50;;;;;;5116073;28;20016;-38
2021/03/29 09:04:05;;;;;;;9.45;3.88;;;15.80;43.90;;;;;;5116027;27;20026;-42
2021/03/29 09:06:32;;;;;;;6.75;3.25;;;16.00;43.60;;;;;;5115814;28;20095;-38
2021/03/29 09:08:58;;;;;;;14.63;3.35;;;15.90;43.50;;;;;;5115397;28;20020;-40
2021/03/29 09:11:24;;;;;;;6.32;3.10;;;16.30;42.70;;;;;;5116153;28;20031;-37
2021/03/29 09:13:54;;;;;;;14.30;4.13;;;15.80;43.60;;;;;;5115713;27;20024;-37
2021/03/29 09:16:24;;;;;;;8.43;3.67;;;16.00;43.30;;;;;;5115655;28;20024;-37
2021/03/29 09:18:49;;;;;;;16.00;3.45;;;16.20;42.70;;;;;;5114576;28;20275;-38
2021/03/29 09:21:24;;;;;;;11.48;2.85;;;16.20;42.90;;;;;;5113754;28;20523;-38
2021/03/29 09:23:50;;;;;;;4.68;2.40;;;16.00;43.30;;;;;;5115547;28;20355;-37
2021/03/29 09:26:25;;;;;;;13.10;5.07;;;16.80;41.90;;;;;;5115210;28;20020;-38
2021/03/29 09:28:52;;;;;;;6.68;2.58;;;16.30;42.40;;;;;;5115506;28;20432;-37
2021/03/29 09:31:25;;;;;;;8.50;3.20;;;15.80;43.40;;;;;;5115725;28;20042;-38
2021/03/29 09:33:53;;;;;;;5.80;2.38;;;16.00;42.80;;;;;;5114700;28;20063;-38
2021/03/29 09:36:22;;;;;;;6.07;3.13;;;16.30;42.30;;;;;;5114941;28;20080;-38
2021/03/29 09:38:55;;;;;;;7.05;3.13;;;16.00;42.20;;;;;;5114790;28;20490;-38
2021/03/29 09:41:28;;;;;;;5.28;2.85;;;16.00;42.10;;;;;;5115250;28;20032;-39
2021/03/29 09:43:56;;;;;;;7.78;2.90;;;17.00;40.60;;;;;;5115407;28;20459;-37
2021/03/29 09:46:29;;;;;;;10.98;4.18;;;16.80;41.50;;;;;;5114394;28;20027;-38
2021/03/29 09:49:07;;;;;;;15.70;4.25;;;17.40;40.30;;;;;;5114928;28;20118;-37
2021/03/29 09:51:33;;;;;;;10.57;3.33;;;17.30;40.40;;;;;;5114598;28;20034;-38
2021/03/29 09:53:58;;;;;;;7.38;2.53;;;17.00;41.00;;;;;;5113136;28;20024;-39
2021/03/29 09:56:28;;;;;;;9.20;2.75;;;17.80;38.70;;;;;;5114729;28;20031;-38
2021/03/29 09:58:54;;;;;;;9.60;3.35;;;18.20;38.20;;;;;;5114479;28;20387;-38
2021/03/29 10:01:26;;;;;;;9.20;2.65;;;18.10;37.50;;;;;;5114509;28;20397;-39
2021/03/29 10:03:56;;;;;;;9.73;2.67;;;18.10;37.10;;;;;;5113011;28;20028;-38
2021/03/29 10:06:24;;;;;;;5.60;2.45;;;18.60;37.00;;;;;;5114445;28;20024;-38
2021/03/29 10:09:01;;;;;;;9.15;2.65;;;18.20;37.20;;;;;;5114596;28;20076;-38
2021/03/29 10:11:41;;;;;;;5.43;2.00;;;18.40;37.20;;;;;;5114632;28;20390;-38
2021/03/29 10:14:07;;;;;;;9.10;3.10;;;17.50;37.80;;;;;;5114260;28;20060;-37
2021/03/29 10:16:42;;;;;;;9.13;3.35;;;17.80;37.80;;;;;;5113806;28;20032;-40
2021/03/29 10:19:11;;;;;;;6.95;2.53;;;18.10;37.40;;;;;;5114541;28;20051;-36
2021/03/29 10:21:59;;;;;;;7.70;2.50;;;17.80;37.30;;;;;;5112580;28;20042;-37
2021/03/29 10:24:25;;;;;;;7.15;2.05;;;17.80;36.70;;;;;;5113880;28;20066;-38
2021/03/29 10:27:05;;;;;;;7.70;3.17;;;18.30;35.50;;;;;;5113919;28;20027;-39
2021/03/29 10:29:41;;;;;;;9.50;2.77;;;18.80;35.40;;;;;;5112827;28;20039;-38
2021/03/29 10:32:15;;;;;;;7.07;2.67;;;18.30;35.70;;;;;;5114016;28;20031;-38
2021/03/29 10:34:43;;;;;;;8.45;2.90;;;18.30;35.40;;;;;;5113515;28;20050;-38
2021/03/29 10:37:24;;;;;;;8.57;2.88;;;18.20;34.70;;;;;;5113458;28;20088;-39
2021/03/29 10:39:52;;;;;;;5.97;2.20;;;19.10;34.30;;;;;;5095420;28;20080;-39
2021/03/29 10:42:20;;;;;;;8.13;2.53;;;19.70;33.00;;;;;;5113587;28;20027;-38
2021/03/29 10:44:46;;;;;;;5.75;2.15;;;19.30;33.00;;;;;;5114005;28;20115;-37
2021/03/29 10:47:12;;;;;;;5.97;2.25;;;20.00;30.50;;;;;;5113470;28;20059;-38
2021/03/29 10:49:41;;;;;;;6.18;2.88;;;19.70;29.80;;;;;;5113256;28;20506;-38
2021/03/29 10:52:08;;;;;;;10.60;2.63;;;19.30;29.70;;;;;;5113354;28;20023;-38
2021/03/29 10:54:34;;;;;;;12.85;2.83;;;19.60;29.50;;;;;;5111915;28;20463;-38
2021/03/29 10:57:00;;;;;;;8.75;2.78;;;19.50;29.40;;;;;;5112084;28;20117;-38
2021/03/29 10:59:26;;;;;;;7.85;2.30;;;20.30;28.10;;;;;;5113155;28;20482;-39
2021/03/29 11:01:51;;;;;;;6.70;2.60;;;19.60;28.00;;;;;;5111789;28;20063;-37
2021/03/29 11:04:19;;;;;;;11.55;2.83;;;19.70;28.60;;;;;;5113505;28;20031;-39
2021/03/29 11:06:45;;;;;;;9.45;3.00;;;20.20;27.70;;;;;;5113742;28;20020;-38
2021/03/29 11:09:11;;;;;;;7.55;2.28;;;20.30;27.10;;;;;;5113506;28;20022;-38
2021/03/29 11:11:36;;;;;;;10.63;2.20;;;20.40;27.40;;;;;;5115202;28;20016;-37
2021/03/29 11:14:03;;;;;;;7.05;3.15;;;20.20;26.90;;;;;;5112078;28;20100;-37
2021/03/29 11:16:29;;;;;;;5.50;1.98;;;20.70;26.60;;;;;;5113260;28;20031;-39
2021/03/29 11:18:55;;;;;;;6.90;2.17;;;19.40;28.30;;;;;;5113943;28;20047;-38
2021/03/29 11:21:21;;;;;;;8.57;3.05;;;20.00;27.60;;;;;;5112618;28;20055;-38
2021/03/29 11:23:47;;;;;;;8.82;2.80;;;19.70;27.10;;;;;;5112884;28;20024;-39
2021/03/29 11:26:12;;;;;;;10.55;3.17;;;20.00;26.60;;;;;;5113511;28;20020;-38
2021/03/29 11:28:38;;;;;;;9.70;2.60;;;19.60;26.80;;;;;;5113035;28;20016;-37
2021/03/29 11:31:04;;;;;;;6.18;2.60;;;20.50;26.00;;;;;;5112366;28;20429;-39
2021/03/29 11:33:30;;;;;;;11.70;2.92;;;20.70;25.50;;;;;;5113249;28;20096;-38
2021/03/29 11:35:56;;;;;;;10.80;2.35;;;21.10;24.50;;;;;;5094868;28;20089;-37
2021/03/29 11:38:22;;;;;;;11.30;3.20;;;20.60;25.30;;;;;;5112506;28;20027;-38
2021/03/29 11:40:48;;;;;;;8.30;2.67;;;21.20;23.50;;;;;;5112221;28;20024;-38
2021/03/29 11:43:13;;;;;;;8.15;2.42;;;20.80;24.30;;;;;;5112525;28;20024;-39
2021/03/29 11:45:39;;;;;;;7.47;2.10;;;21.30;23.40;;;;;;5112334;28;20076;-38
2021/03/29 11:48:06;;;;;;;17.05;5.25;;;21.00;24.30;;;;;;5112644;28;20044;-38
2021/03/29 11:50:31;;;;;;;6.40;2.08;;;20.70;24.40;;;;;;5112681;28;20103;-38
2021/03/29 11:52:57;;;;;;;6.72;2.33;;;20.80;23.60;;;;;;5112077;28;20149;-37
2021/03/29 11:55:23;;;;;;;6.07;1.75;;;21.30;23.80;;;;;;5112534;28;20027;-37
2021/03/29 11:57:50;;;;;;;3.65;1.88;;;21.40;23.50;;;;;;5112625;28;20023;-37
2021/03/29 12:00:37;;;;;;;7.13;2.30;;;20.80;22.20;;;;;;5112193;28;20027;-39
2021/03/29 12:03:09;;;;;;;12.20;2.22;;;20.80;22.30;;;;;;5114980;28;20329;-37
2021/03/29 12:05:38;;;;;;;7.70;2.13;;;21.80;21.70;;;;;;5116449;28;20024;-38
2021/03/29 12:08:20;;;;;;;10.35;2.78;;;21.70;21.80;;;;;;5116729;28;20102;-39
2021/03/29 12:13:35;;;;;;;8.27;2.85;;;21.10;21.70;;;;;;5116712;28;20180;-41
2021/03/29 12:16:03;;;;;;;7.25;2.40;;;21.30;21.40;;;;;;5116340;28;20027;-38
2021/03/29 12:21:37;;;;;;;10.57;2.78;;;22.20;21.80;;;;;;5107096;28;20361;-37
2021/03/29 12:24:13;;;;;;;6.38;2.30;;;22.30;22.20;;;;;;5116115;28;20068;-37
2021/03/29 12:26:41;;;;;;;9.07;2.05;;;22.40;22.40;;;;;;5116167;28;20035;-38
2021/03/29 12:29:11;;;;;;;7.63;2.00;;;21.80;21.80;;;;;;5116246;28;20471;-38
2021/03/29 12:31:39;;;;;;;5.78;2.38;;;21.90;21.40;;;;;;5116709;28;20425;-38
2021/03/29 12:34:05;;;;;;;6.18;3.00;;;22.10;21.50;;;;;;5116197;28;20074;-37
2021/03/29 12:36:42;;;;;;;9.32;2.53;;;22.60;21.70;;;;;;5116475;28;20374;-37
2021/03/29 12:41:41;;;;;;;;;;;22.90;22.20;;;;;;5116731;28;20034;-37
2021/03/29 12:44:13;;;;;;;5.53;2.22;;;22.50;21.30;;;;;;5114631;28;20314;-39
2021/03/29 12:46:41;;;;;;;9.63;3.38;;;21.80;21.90;;;;;;5116138;28;20487;-38
2021/03/29 12:49:15;;;;;;;9.63;2.10;;;21.50;22.40;;;;;;5115288;28;20047;-38
2021/03/29 12:51:42;;;;;;;8.00;2.53;;;21.90;21.50;;;;;;5113962;28;20457;-38
2021/03/29 12:54:14;;;;;;;7.30;2.83;;;22.10;21.40;;;;;;5115440;28;20464;-38
2021/03/29 12:56:42;;;;;;;17.35;5.13;;;22.40;21.30;;;;;;5115712;28;20102;-38
2021/03/29 12:59:08;;;;;;;11.20;2.83;;;21.30;21.70;;;;;;5115886;28;20081;-38
2021/03/29 13:01:36;;;;;;;9.10;2.65;;;20.70;22.70;;;;;;5114276;28;20016;-39
2021/03/29 13:04:29;;;;;;;7.78;2.22;;;20.80;22.80;;;;;;5115184;28;20026;-38
2021/03/29 13:07:14;;;;;;;8.05;2.38;;;20.80;23.30;;;;;;5114717;27;20040;-39
2021/03/29 13:09:54;;;;;;;8.55;2.50;;;20.60;22.60;;;;;;5115156;28;20116;-39